createdAt,value
2018-01-14T00:01:58.982Z,5.40
2018-01-14T00:04:27.270Z,5.40
2018-01-14T00:06:55.558Z,5.50
2018-01-14T00:09:23.838Z,5.50
2018-01-14T00:11:52.110Z,5.60
2018-01-14T00:14:20.390Z,5.60
2018-01-14T00:16:48.646Z,5.60
2018-01-14T00:19:16.913Z,5.70
2018-01-14T00:21:45.206Z,5.70
2018-01-14T00:24:13.459Z,5.60
2018-01-14T00:26:41.742Z,5.50
2018-01-14T00:29:10.003Z,5.40
2018-01-14T00:31:38.266Z,5.30
2018-01-14T00:34:06.559Z,5.30
2018-01-14T00:36:34.818Z,5.40
2018-01-14T00:39:03.098Z,5.40
2018-01-14T00:41:31.355Z,5.30
2018-01-14T00:44:00.138Z,5.30
2018-01-14T00:46:29.240Z,5.30
2018-01-14T00:48:58.047Z,5.40
2018-01-14T00:51:26.298Z,5.40
2018-01-14T00:54:04.694Z,5.40
2018-01-14T00:56:32.945Z,5.40
2018-01-14T00:59:01.199Z,5.40
2018-01-14T01:01:30.509Z,5.40
2018-01-14T01:03:59.491Z,5.50
2018-01-14T01:06:28.154Z,5.50
2018-01-14T01:08:58.119Z,5.50
2018-01-14T01:11:26.374Z,5.50
2018-01-14T01:13:54.653Z,5.50
2018-01-14T01:16:22.914Z,5.50
2018-01-14T01:18:51.201Z,5.40
2018-01-14T01:21:19.467Z,5.40
2018-01-14T01:23:47.746Z,5.30
2018-01-14T01:26:25.887Z,5.30
2018-01-14T01:28:54.186Z,5.30
2018-01-14T01:31:22.438Z,5.30
2018-01-14T01:33:50.690Z,5.30
2018-01-14T01:36:18.982Z,5.30
2018-01-14T01:38:47.278Z,5.30
2018-01-14T01:41:15.526Z,5.30
2018-01-14T01:43:43.783Z,5.30
2018-01-14T01:46:12.068Z,5.40
2018-01-14T01:48:40.351Z,5.30
2018-01-14T01:51:08.602Z,5.30
2018-01-14T01:53:36.892Z,5.30
2018-01-14T01:56:05.151Z,5.30
2018-01-14T01:58:33.402Z,5.30
2018-01-14T02:01:01.683Z,5.30
2018-01-14T02:03:30.139Z,5.40
2018-01-14T02:05:58.974Z,5.30
2018-01-14T02:08:29.102Z,5.20
2018-01-14T02:10:58.024Z,5.20
2018-01-14T02:13:26.294Z,5.20
2018-01-14T02:15:59.659Z,5.20
2018-01-14T02:18:28.587Z,5.20
2018-01-14T02:21:03.914Z,5.20
2018-01-14T02:23:32.166Z,5.20
2018-01-14T02:26:00.426Z,5.10
2018-01-14T02:28:29.619Z,5.10
2018-01-14T02:30:58.673Z,5.20
2018-01-14T02:33:33.990Z,5.20
2018-01-14T02:36:02.274Z,5.10
2018-01-14T02:38:31.471Z,5.10
2018-01-14T02:41:00.102Z,5.20
2018-01-14T02:43:28.938Z,5.10
2018-01-14T02:45:57.222Z,5.20
2018-01-14T02:48:25.481Z,5.10
2018-01-14T02:50:53.776Z,5.10
2018-01-14T02:53:22.026Z,5.10
2018-01-14T02:55:50.314Z,5.10
2018-01-14T02:58:19.499Z,5.10
2018-01-14T03:00:47.798Z,5.10
2018-01-14T03:03:32.573Z,5.10
2018-01-14T03:06:00.842Z,5.10
2018-01-14T03:08:29.877Z,5.10
2018-01-14T03:10:58.789Z,5.10
2018-01-14T03:13:27.045Z,5.20
2018-01-14T03:15:55.330Z,5.10
2018-01-14T03:18:23.611Z,5.10
2018-01-14T03:20:51.906Z,5.20
2018-01-14T03:23:32.997Z,5.10
2018-01-14T03:26:01.282Z,5.30
2018-01-14T03:28:30.114Z,5.30
2018-01-14T03:30:59.086Z,5.20
2018-01-14T03:33:28.178Z,5.30
2018-01-14T03:35:56.437Z,5.30
2018-01-14T03:38:24.729Z,5.20
2018-01-14T03:40:52.986Z,5.20
2018-01-14T03:43:21.274Z,5.20
2018-01-14T03:45:48.769Z,5.20
2018-01-14T03:48:17.061Z,5.10
2018-01-14T03:50:45.324Z,5.10
2018-01-14T03:53:13.609Z,5.10
2018-01-14T03:55:41.902Z,5.10
2018-01-14T03:58:11.102Z,5.10
2018-01-14T04:00:39.386Z,5.00
2018-01-14T04:03:07.633Z,5.00
2018-01-14T04:05:39.577Z,5.00
2018-01-14T04:08:07.824Z,5.00
2018-01-14T04:10:36.122Z,4.90
2018-01-14T04:13:04.378Z,4.90
2018-01-14T04:15:39.562Z,5.00
2018-01-14T04:18:07.815Z,5.00
2018-01-14T04:20:36.074Z,5.00
2018-01-14T04:23:04.375Z,4.90
2018-01-14T04:25:32.637Z,4.90
2018-01-14T04:28:00.895Z,5.00
2018-01-14T04:30:29.937Z,5.00
2018-01-14T04:32:59.113Z,5.00
2018-01-14T04:35:29.078Z,4.90
2018-01-14T04:37:58.583Z,4.90
2018-01-14T04:40:26.878Z,4.90
2018-01-14T04:42:55.137Z,4.90
2018-01-14T04:45:23.425Z,4.90
2018-01-14T04:47:51.689Z,4.90
2018-01-14T04:50:19.957Z,4.80
2018-01-14T04:52:50.149Z,4.80
2018-01-14T04:55:18.419Z,4.90
2018-01-14T04:57:46.719Z,4.90
2018-01-14T05:00:14.979Z,4.80
2018-01-14T05:02:43.246Z,4.80
2018-01-14T05:05:11.526Z,4.80
2018-01-14T05:07:39.809Z,4.80
2018-01-14T05:10:09.078Z,4.80
2018-01-14T05:12:37.362Z,4.80
2018-01-14T05:15:05.651Z,4.90
2018-01-14T05:17:33.901Z,4.80
2018-01-14T05:20:02.193Z,4.80
2018-01-14T05:22:30.040Z,4.80
2018-01-14T05:24:59.086Z,4.80
2018-01-14T05:27:28.165Z,4.80
2018-01-14T05:29:56.454Z,4.90
2018-01-14T05:32:24.741Z,4.80
2018-01-14T05:34:53.037Z,4.80
2018-01-14T05:37:21.289Z,4.80
2018-01-14T05:39:49.586Z,4.80
2018-01-14T05:42:17.846Z,4.80
2018-01-14T05:44:47.006Z,4.70
2018-01-14T05:47:15.289Z,4.70
2018-01-14T05:49:43.558Z,4.80
2018-01-14T05:52:11.851Z,4.70
2018-01-14T05:54:44.762Z,4.70
2018-01-14T05:57:13.065Z,4.70
2018-01-14T05:59:41.358Z,4.70
2018-01-14T06:02:09.622Z,4.70
2018-01-14T06:04:44.678Z,4.70
2018-01-14T06:07:12.958Z,4.70
2018-01-14T06:09:41.269Z,4.70
2018-01-14T06:12:09.518Z,4.60
2018-01-14T06:14:37.913Z,4.60
2018-01-14T06:17:07.211Z,4.60
2018-01-14T06:19:35.473Z,4.50
2018-01-14T06:22:03.757Z,4.50
2018-01-14T06:24:35.818Z,4.50
2018-01-14T06:27:04.110Z,4.50
2018-01-14T06:29:32.376Z,4.50
2018-01-14T06:32:00.654Z,4.50
2018-01-14T06:34:29.751Z,4.70
2018-01-14T06:36:58.875Z,4.70
2018-01-14T06:39:27.157Z,4.60
2018-01-14T06:41:55.438Z,4.50
2018-01-14T06:44:23.735Z,4.50
2018-01-14T06:46:51.986Z,4.60
2018-01-14T06:49:20.273Z,4.50
2018-01-14T06:51:52.194Z,4.50
2018-01-14T06:54:20.490Z,4.50
2018-01-14T06:56:48.782Z,4.50
2018-01-14T06:59:17.086Z,4.50
2018-01-14T07:01:45.342Z,4.60
2018-01-14T07:04:13.594Z,4.50
2018-01-14T07:06:41.886Z,4.50
2018-01-14T07:09:33.183Z,4.40
2018-01-14T07:12:01.466Z,4.40
2018-01-14T07:14:30.058Z,4.40
2018-01-14T07:16:59.134Z,4.40
2018-01-14T07:19:28.117Z,4.40
2018-01-14T07:21:56.401Z,4.40
2018-01-14T07:24:24.695Z,4.50
2018-01-14T07:26:52.954Z,4.60
2018-01-14T07:29:21.240Z,4.60
2018-01-14T07:31:49.521Z,4.50
2018-01-14T07:34:17.778Z,4.50
2018-01-14T07:36:56.385Z,4.60
2018-01-14T07:39:24.678Z,4.50
2018-01-14T07:41:52.987Z,4.50
2018-01-14T07:44:21.202Z,4.60
2018-01-14T07:46:49.491Z,4.50
2018-01-14T07:49:17.754Z,4.50
2018-01-14T07:51:46.062Z,4.50
2018-01-14T07:54:14.318Z,4.50
2018-01-14T07:56:59.547Z,4.50
2018-01-14T07:59:28.779Z,4.50
2018-01-14T08:02:11.637Z,4.50
2018-01-14T08:04:39.903Z,4.50
2018-01-14T08:07:08.182Z,4.50
2018-01-14T08:09:36.474Z,4.50
2018-01-14T08:12:04.727Z,4.50
2018-01-14T08:14:33.002Z,4.50
2018-01-14T08:17:00.499Z,4.50
2018-01-14T08:19:29.770Z,4.60
2018-01-14T08:21:58.698Z,4.60
2018-01-14T08:24:34.193Z,4.60
2018-01-14T08:27:02.454Z,4.60
2018-01-14T08:29:30.747Z,4.50
2018-01-14T08:31:59.711Z,4.50
2018-01-14T08:34:28.722Z,4.60
2018-01-14T08:37:03.251Z,4.60
2018-01-14T08:39:31.550Z,4.50
2018-01-14T08:42:00.141Z,4.50
2018-01-14T08:44:29.149Z,4.50
2018-01-14T08:46:58.134Z,4.60
2018-01-14T08:49:26.386Z,4.50
2018-01-14T08:51:54.674Z,4.50
2018-01-14T08:54:22.933Z,4.50
2018-01-14T08:56:51.223Z,4.50
2018-01-14T08:59:19.480Z,4.50
2018-01-14T09:01:50.557Z,4.60
2018-01-14T09:04:18.819Z,4.60
2018-01-14T09:06:47.107Z,4.60
2018-01-14T09:09:15.400Z,4.60
2018-01-14T09:11:43.649Z,4.60
2018-01-14T09:14:31.930Z,4.70
2018-01-14T09:17:00.215Z,4.70
2018-01-14T09:19:29.486Z,4.70
2018-01-14T09:21:59.063Z,4.70
2018-01-14T09:24:28.792Z,4.80
2018-01-14T09:26:57.831Z,4.70
2018-01-14T09:29:29.298Z,4.70
2018-01-14T09:31:58.619Z,4.70
2018-01-14T09:34:29.589Z,4.70
2018-01-14T09:36:58.904Z,4.70
2018-01-14T09:39:27.924Z,4.70
2018-01-14T09:41:56.211Z,4.70
2018-01-14T09:44:24.474Z,4.70
2018-01-14T09:46:52.860Z,4.70
2018-01-14T09:49:21.138Z,4.70
2018-01-14T09:51:48.632Z,4.70
2018-01-14T09:54:16.930Z,4.70
2018-01-14T09:56:45.177Z,4.70
2018-01-14T09:59:13.445Z,4.70
2018-01-14T10:01:43.647Z,4.70
2018-01-14T10:04:11.169Z,4.70
2018-01-14T10:06:46.436Z,4.70
2018-01-14T10:09:14.741Z,4.70
2018-01-14T10:11:48.633Z,4.70
2018-01-14T10:14:16.891Z,4.70
2018-01-14T10:16:45.186Z,4.70
2018-01-14T10:19:13.446Z,4.70
2018-01-14T10:21:48.670Z,4.70
2018-01-14T10:24:16.921Z,4.70
2018-01-14T10:26:46.229Z,4.70
2018-01-14T10:29:14.482Z,4.70
2018-01-14T10:31:42.736Z,4.70
2018-01-14T10:34:11.010Z,4.80
2018-01-14T10:36:39.299Z,4.80
2018-01-14T10:39:07.586Z,4.90
2018-01-14T10:41:36.838Z,4.90
2018-01-14T10:44:05.098Z,4.90
2018-01-14T10:46:33.366Z,4.80
2018-01-14T10:49:01.622Z,4.80
2018-01-14T10:51:29.905Z,4.90
2018-01-14T10:53:58.170Z,4.90
2018-01-14T10:56:26.466Z,4.90
2018-01-14T10:58:54.727Z,4.90
2018-01-14T11:01:28.775Z,5.00
2018-01-14T11:03:57.908Z,5.00
2018-01-14T11:06:26.200Z,5.00
2018-01-14T11:08:54.459Z,4.90
2018-01-14T11:11:22.746Z,5.00
2018-01-14T11:13:51.004Z,5.00
2018-01-14T11:16:20.276Z,5.10
2018-01-14T11:18:48.561Z,5.10
2018-01-14T11:21:20.479Z,5.10
2018-01-14T11:23:48.772Z,5.20
2018-01-14T11:26:18.027Z,5.10
2018-01-14T11:28:52.009Z,5.10
2018-01-14T11:31:21.199Z,5.10
2018-01-14T11:33:49.514Z,5.20
2018-01-14T11:36:17.774Z,5.30
2018-01-14T11:38:46.030Z,5.30
2018-01-14T11:41:14.326Z,5.30
2018-01-14T11:43:42.582Z,5.30
2018-01-14T11:46:14.450Z,5.30
2018-01-14T11:48:42.714Z,5.30
2018-01-14T11:51:11.971Z,5.30
2018-01-14T11:53:40.253Z,5.30
2018-01-14T11:56:08.514Z,5.30
2018-01-14T11:58:36.818Z,5.30
2018-01-14T12:01:08.197Z,5.40
2018-01-14T12:03:36.490Z,5.40
2018-01-14T12:06:04.745Z,5.40
2018-01-14T12:08:33.027Z,5.40
2018-01-14T12:11:01.511Z,5.40
2018-01-14T12:13:29.818Z,5.40
2018-01-14T12:16:00.010Z,5.40
2018-01-14T12:18:28.298Z,5.50
2018-01-14T12:20:59.399Z,5.50
2018-01-14T12:23:28.682Z,5.50
2018-01-14T12:26:02.142Z,5.50
2018-01-14T12:28:30.398Z,5.50
2018-01-14T12:31:04.322Z,5.60
2018-01-14T12:33:45.443Z,5.60
2018-01-14T12:36:13.730Z,5.60
2018-01-14T12:38:43.018Z,5.60
2018-01-14T12:41:11.269Z,5.60
2018-01-14T12:43:40.597Z,5.70
2018-01-14T12:46:08.826Z,5.70
2018-01-14T12:48:44.022Z,5.70
2018-01-14T12:51:12.279Z,5.70
2018-01-14T12:53:41.501Z,5.70
2018-01-14T12:56:09.982Z,5.70
2018-01-14T12:58:38.280Z,5.70
2018-01-14T13:01:20.439Z,5.70
2018-01-14T13:03:48.739Z,5.70
2018-01-14T13:06:17.003Z,5.70
2018-01-14T13:08:45.257Z,5.70
2018-01-14T13:11:13.514Z,5.70
2018-01-14T13:13:41.793Z,5.80
2018-01-14T13:16:13.603Z,5.70
2018-01-14T13:18:41.909Z,5.70
2018-01-14T13:21:10.211Z,5.70
2018-01-14T13:23:38.466Z,5.70
2018-01-14T13:26:06.001Z,5.70
2018-01-14T13:28:34.266Z,5.70
2018-01-14T13:31:02.580Z,5.70
2018-01-14T13:33:32.790Z,5.70
2018-01-14T13:36:01.058Z,5.70
2018-01-14T13:38:36.512Z,5.60
2018-01-14T13:41:04.837Z,5.60
2018-01-14T13:43:33.095Z,5.60
2018-01-14T13:46:00.701Z,5.60
2018-01-14T13:48:38.784Z,5.50
2018-01-14T13:51:07.085Z,5.50
2018-01-14T13:53:52.550Z,5.50
2018-01-14T13:56:21.430Z,5.50
2018-01-14T13:58:49.690Z,5.50
2018-01-14T14:01:17.954Z,5.50
2018-01-14T14:03:47.137Z,5.50
2018-01-14T14:06:15.437Z,5.50
2018-01-14T14:08:43.769Z,5.40
2018-01-14T14:11:12.134Z,5.40
2018-01-14T14:13:40.378Z,5.40
2018-01-14T14:16:08.709Z,5.40
2018-01-14T14:18:36.972Z,5.40
2018-01-14T14:21:06.244Z,5.50
2018-01-14T14:23:34.495Z,5.50
2018-01-14T14:26:02.781Z,5.40
2018-01-14T14:28:31.036Z,5.30
2018-01-14T14:30:58.551Z,5.30
2018-01-14T14:33:26.818Z,5.30
2018-01-14T14:36:14.533Z,5.30
2018-01-14T14:38:42.790Z,5.20
2018-01-14T14:41:14.425Z,5.20
2018-01-14T14:43:42.715Z,5.20
2018-01-14T14:46:11.015Z,5.20
2018-01-14T14:48:39.246Z,5.10
2018-01-14T14:51:07.525Z,5.10
2018-01-14T14:53:35.825Z,5.10
2018-01-14T14:56:07.830Z,5.10
2018-01-14T14:58:36.159Z,5.00
2018-01-14T15:01:05.377Z,5.00
2018-01-14T15:03:33.630Z,5.00
2018-01-14T15:06:01.899Z,5.00
2018-01-14T15:08:30.145Z,4.90
2018-01-14T15:11:02.275Z,4.90
2018-01-14T15:13:30.572Z,4.80
2018-01-14T15:16:00.353Z,4.80
2018-01-14T15:18:29.026Z,4.70
2018-01-14T15:20:57.278Z,4.70
2018-01-14T15:23:25.594Z,4.70
2018-01-14T15:25:53.889Z,4.80
2018-01-14T15:28:22.131Z,4.80
2018-01-14T15:30:50.413Z,4.80
2018-01-14T15:33:18.762Z,4.70
2018-01-14T15:35:47.009Z,4.70
2018-01-14T15:38:15.294Z,4.60
2018-01-14T15:40:43.550Z,4.60
2018-01-14T15:43:11.842Z,4.50
2018-01-14T15:45:50.390Z,4.50
2018-01-14T15:48:18.716Z,4.50
2018-01-14T15:50:50.570Z,4.50
2018-01-14T15:53:18.868Z,4.50
2018-01-14T15:55:51.733Z,4.40
2018-01-14T15:58:19.986Z,4.40
2018-01-14T16:00:48.253Z,4.40
2018-01-14T16:03:16.622Z,4.40
2018-01-14T16:05:44.867Z,4.40
2018-01-14T16:08:13.177Z,4.30
2018-01-14T16:10:41.474Z,4.30
2018-01-14T16:13:09.725Z,4.20
2018-01-14T16:15:44.152Z,4.20
2018-01-14T16:18:12.445Z,4.30
2018-01-14T16:20:44.512Z,4.20
2018-01-14T16:23:12.811Z,4.20
2018-01-14T16:25:41.113Z,4.10
2018-01-14T16:28:09.437Z,4.10
2018-01-14T16:30:37.721Z,4.10
2018-01-14T16:33:06.051Z,4.10
2018-01-14T16:35:34.314Z,4.10
2018-01-14T16:38:07.367Z,4.10
2018-01-14T16:40:35.667Z,4.20
2018-01-14T16:43:03.958Z,4.20
2018-01-14T16:45:33.228Z,4.20
2018-01-14T16:48:01.572Z,4.20
2018-01-14T16:50:29.867Z,4.20
2018-01-14T16:52:58.835Z,4.10
2018-01-14T16:55:32.453Z,4.00
2018-01-14T16:58:00.720Z,4.00
2018-01-14T17:00:29.850Z,4.00
2018-01-14T17:02:59.486Z,4.00
2018-01-14T17:05:27.790Z,4.00
2018-01-14T17:07:56.050Z,3.90
2018-01-14T17:10:38.328Z,3.90
2018-01-14T17:13:06.689Z,3.90
2018-01-14T17:15:35.007Z,3.90
2018-01-14T17:18:05.187Z,3.90
2018-01-14T17:20:37.967Z,3.90
2018-01-14T17:23:06.259Z,3.90
2018-01-14T17:25:34.589Z,3.80
2018-01-14T17:28:02.915Z,3.80
2018-01-14T17:30:31.170Z,3.80
2018-01-14T17:33:07.352Z,3.80
2018-01-14T17:35:35.651Z,3.70
2018-01-14T17:38:04.139Z,3.70
2018-01-14T17:40:31.903Z,3.80
2018-01-14T17:43:00.394Z,3.70
2018-01-14T17:45:51.459Z,3.70
2018-01-14T17:48:19.727Z,3.70
2018-01-14T17:50:48.238Z,3.70
2018-01-14T17:53:16.524Z,3.70
2018-01-14T17:55:47.961Z,3.60
2018-01-14T17:58:16.294Z,3.70
2018-01-14T18:00:49.032Z,3.60
2018-01-14T18:03:17.356Z,3.60
2018-01-14T18:05:51.223Z,3.60
2018-01-14T18:08:19.553Z,3.50
2018-01-14T18:10:47.046Z,3.50
2018-01-14T18:13:15.427Z,3.50
2018-01-14T18:15:56.816Z,3.50
2018-01-14T18:18:25.144Z,3.50
2018-01-14T18:20:53.439Z,3.50
2018-01-14T18:23:21.290Z,3.50
2018-01-14T18:25:51.588Z,3.50
2018-01-14T18:28:20.121Z,3.50
2018-01-14T18:30:48.376Z,3.40
2018-01-14T18:33:16.882Z,3.40
2018-01-14T18:36:05.804Z,3.40
2018-01-14T18:38:34.066Z,3.30
2018-01-14T18:41:05.924Z,3.30
2018-01-14T18:43:34.423Z,3.40
2018-01-14T18:46:10.734Z,3.40
2018-01-14T18:48:39.036Z,3.40
2018-01-14T18:51:07.333Z,3.40
2018-01-14T18:53:35.669Z,3.40
2018-01-14T18:56:03.926Z,3.30
2018-01-14T18:58:32.225Z,3.30
2018-01-14T19:01:00.533Z,3.40
2018-01-14T19:03:29.500Z,3.40
2018-01-14T19:05:58.804Z,3.40
2018-01-14T19:08:27.145Z,3.30
2018-01-14T19:10:55.493Z,3.30
2018-01-14T19:13:23.832Z,3.30
2018-01-14T19:15:53.061Z,3.30
2018-01-14T19:18:21.374Z,3.30
2018-01-14T19:20:57.680Z,3.30
2018-01-14T19:23:26.000Z,3.30
2018-01-14T19:25:54.254Z,3.20
2018-01-14T19:28:22.543Z,3.20
2018-01-14T19:30:54.324Z,3.20
2018-01-14T19:33:22.651Z,3.30
2018-01-14T19:35:54.462Z,3.30
2018-01-14T19:38:22.787Z,3.20
2018-01-14T19:40:52.951Z,3.30
2018-01-14T19:43:21.305Z,3.30
2018-01-14T19:45:50.571Z,3.20
2018-01-14T19:48:18.913Z,3.20
2018-01-14T19:50:50.708Z,3.20
2018-01-14T19:53:19.051Z,3.20
2018-01-14T19:55:50.792Z,3.20
2018-01-14T19:58:19.208Z,3.10
2018-01-14T20:00:53.781Z,3.20
2018-01-14T20:03:22.112Z,3.20
2018-01-14T20:05:52.394Z,3.20
2018-01-14T20:08:20.701Z,3.20
2018-01-14T20:10:56.055Z,3.20
2018-01-14T20:13:24.360Z,3.20
2018-01-14T20:15:52.670Z,3.20
2018-01-14T20:18:20.949Z,3.30
2018-01-14T20:20:49.214Z,3.20
2018-01-14T20:23:17.562Z,3.20
2018-01-14T20:25:46.817Z,3.20
2018-01-14T20:28:15.074Z,3.20
2018-01-14T20:30:44.378Z,3.20
2018-01-14T20:33:12.671Z,3.20
2018-01-14T20:35:52.830Z,3.20
2018-01-14T20:38:21.137Z,3.20
2018-01-14T20:40:50.410Z,3.20
2018-01-14T20:43:18.725Z,3.10
2018-01-14T20:45:48.061Z,3.10
2018-01-14T20:48:16.321Z,3.20
2018-01-14T20:51:03.936Z,3.10
2018-01-14T20:53:31.498Z,3.10
2018-01-14T20:55:59.801Z,3.20
2018-01-14T20:58:28.841Z,3.20
2018-01-14T21:01:05.398Z,3.10
2018-01-14T21:03:33.736Z,3.10
2018-01-14T21:06:12.558Z,3.10
2018-01-14T21:08:40.876Z,3.10
2018-01-14T21:11:10.135Z,3.10
2018-01-14T21:13:38.490Z,3.10
2018-01-14T21:16:28.981Z,3.10
2018-01-14T21:18:58.340Z,3.00
2018-01-14T21:21:30.872Z,3.00
2018-01-14T21:24:00.076Z,3.00
2018-01-14T21:26:31.976Z,3.00
2018-01-14T21:29:00.282Z,3.00
2018-01-14T21:31:28.970Z,3.00
2018-01-14T21:33:58.502Z,3.00
2018-01-14T21:36:34.891Z,3.00
2018-01-14T21:39:03.157Z,3.00
2018-01-14T21:41:33.502Z,3.00
2018-01-14T21:44:01.842Z,2.90
2018-01-14T21:46:30.164Z,2.90
2018-01-14T21:48:58.461Z,2.90
2018-01-14T21:51:29.873Z,2.90
2018-01-14T21:53:59.431Z,2.90
2018-01-14T21:56:42.314Z,3.00
2018-01-14T21:59:10.743Z,3.00
2018-01-14T22:04:36.300Z,2.90
2018-01-14T22:07:04.602Z,2.90
2018-01-14T22:09:41.404Z,2.90
2018-01-14T22:12:09.778Z,2.90
2018-01-14T22:14:39.997Z,2.90
2018-01-14T22:17:08.332Z,2.90
2018-01-14T22:19:43.494Z,2.90
2018-01-14T22:22:11.829Z,2.80
2018-01-14T22:24:40.162Z,2.80
2018-01-14T22:27:08.455Z,2.80
2018-01-14T22:29:44.866Z,2.80
2018-01-14T22:32:13.201Z,2.80
2018-01-14T22:34:41.505Z,2.80
2018-01-14T22:37:12.874Z,2.80
2018-01-14T22:39:41.168Z,2.80
2018-01-14T22:42:19.538Z,2.80
2018-01-14T22:44:47.842Z,2.80
2018-01-14T22:47:15.394Z,2.80
2018-01-14T22:49:43.724Z,2.80
2018-01-14T22:52:12.021Z,2.80
2018-01-14T22:54:50.306Z,2.80
2018-01-14T22:57:18.554Z,2.80
2018-01-14T22:59:47.829Z,2.80
2018-01-14T23:02:16.120Z,2.80
2018-01-14T23:04:52.467Z,2.80
2018-01-14T23:07:20.731Z,2.70
2018-01-14T23:09:49.056Z,2.70
2018-01-14T23:12:17.310Z,2.70
2018-01-14T23:15:01.429Z,2.70
2018-01-14T23:17:29.678Z,2.70
2018-01-14T23:20:07.803Z,2.80
2018-01-14T23:22:36.057Z,2.80
2018-01-14T23:25:05.221Z,2.80
2018-01-14T23:27:33.511Z,2.80
2018-01-14T23:30:04.248Z,2.80
2018-01-14T23:32:32.499Z,2.80
2018-01-14T23:35:02.707Z,2.80
2018-01-14T23:37:30.971Z,2.70
2018-01-14T23:40:00.490Z,2.70
2018-01-14T23:42:30.218Z,2.60
2018-01-14T23:44:58.873Z,2.70
2018-01-14T23:47:27.166Z,2.70
2018-01-14T23:50:00.030Z,2.70
2018-01-14T23:52:28.192Z,2.70
2018-01-14T23:54:56.470Z,2.70
2018-01-14T23:57:24.734Z,2.60
2018-01-14T23:59:53.018Z,2.70
